createdAt,value
2023-02-04T00:00:52.229Z,1017.95
2023-02-04T00:01:52.225Z,1017.95
2023-02-04T00:02:52.228Z,1017.95
2023-02-04T00:03:52.130Z,1018
2023-02-04T00:04:52.098Z,1017.99
2023-02-04T00:05:52.108Z,1017.99
2023-02-04T00:06:52.033Z,1018.05
2023-02-04T00:07:51.998Z,1018.02
2023-02-04T00:08:51.977Z,1018.05
2023-02-04T00:09:51.942Z,1018.06
2023-02-04T00:10:51.904Z,1018.13
2023-02-04T00:11:51.880Z,1018.11
2023-02-04T00:12:51.837Z,1018.16
2023-02-04T00:13:51.800Z,1018.12
2023-02-04T00:14:51.770Z,1018.1
2023-02-04T00:15:51.780Z,1018.13
2023-02-04T00:16:51.705Z,1018.19
2023-02-04T00:17:51.696Z,1018.14
2023-02-04T00:18:51.641Z,1018.11
2023-02-04T00:19:51.615Z,1018.15
2023-02-04T00:20:51.575Z,1018.15
2023-02-04T00:21:51.545Z,1018.18
2023-02-04T00:22:51.512Z,1018.21
2023-02-04T00:23:51.481Z,1018.27
2023-02-04T00:24:51.447Z,1018.24
2023-02-04T00:25:51.423Z,1018.28
2023-02-04T00:26:51.378Z,1018.29
2023-02-04T00:27:51.370Z,1018.31
2023-02-04T00:28:51.315Z,1018.33
2023-02-04T00:29:51.282Z,1018.28
2023-02-04T00:30:51.249Z,1018.36
2023-02-04T00:31:51.350Z,1018.41
2023-02-04T00:32:51.186Z,1018.35
2023-02-04T00:33:51.176Z,1018.34
2023-02-04T00:34:51.119Z,1018.33
2023-02-04T00:35:51.089Z,1018.33
2023-02-04T00:36:51.058Z,1018.39
2023-02-04T00:37:51.045Z,1018.34
2023-02-04T00:38:50.991Z,1018.42
2023-02-04T00:39:50.959Z,1018.42
2023-02-04T00:40:50.925Z,1018.43
2023-02-04T00:41:50.891Z,1018.41
2023-02-04T00:42:50.874Z,1018.38
2023-02-04T00:43:50.826Z,1018.36
2023-02-04T00:44:50.792Z,1018.39
2023-02-04T00:45:50.780Z,1018.4
2023-02-04T00:46:50.727Z,1018.4
2023-02-04T00:47:50.695Z,1018.41
2023-02-04T00:48:50.661Z,1018.42
2023-02-04T00:49:50.654Z,1018.4
2023-02-04T00:50:50.598Z,1018.44
2023-02-04T00:51:50.563Z,1018.4
2023-02-04T00:52:50.530Z,1018.4
2023-02-04T00:53:50.501Z,1018.41
2023-02-04T00:54:50.468Z,1018.4
2023-02-04T00:55:50.437Z,1018.46
2023-02-04T00:56:50.403Z,1018.44
2023-02-04T00:57:50.371Z,1018.47
2023-02-04T00:58:50.336Z,1018.45
2023-02-04T00:59:50.302Z,1018.46
2023-02-04T01:00:50.323Z,1018.52
2023-02-04T01:01:50.238Z,1018.56
2023-02-04T01:02:50.262Z,1018.58
2023-02-04T01:03:50.173Z,1018.56
2023-02-04T01:04:50.140Z,1018.54
2023-02-04T01:05:50.134Z,1018.51
2023-02-04T01:06:50.076Z,1018.48
2023-02-04T01:07:50.043Z,1018.54
2023-02-04T01:08:50.021Z,1018.56
2023-02-04T01:09:49.983Z,1018.58
2023-02-04T01:10:49.945Z,1018.64
2023-02-04T01:11:49.914Z,1018.7
2023-02-04T01:12:49.887Z,1018.69
2023-02-04T01:13:49.848Z,1018.73
2023-02-04T01:14:49.831Z,1018.72
2023-02-04T01:15:49.785Z,1018.74
2023-02-04T01:16:49.865Z,1018.71
2023-02-04T01:17:49.743Z,1018.79
2023-02-04T01:18:49.686Z,1018.81
2023-02-04T01:19:49.654Z,1018.82
2023-02-04T01:20:49.620Z,1018.79
2023-02-04T01:21:49.613Z,1018.82
2023-02-04T01:22:49.555Z,1018.8
2023-02-04T01:23:49.525Z,1018.82
2023-02-04T01:24:49.491Z,1018.77
2023-02-04T01:25:49.464Z,1018.82
2023-02-04T01:26:49.428Z,1018.83
2023-02-04T01:27:49.460Z,1018.82
2023-02-04T01:28:49.361Z,1018.82
2023-02-04T01:29:49.331Z,1018.86
2023-02-04T01:30:49.381Z,1018.88
2023-02-04T01:31:49.304Z,1018.89
2023-02-04T01:32:49.230Z,1018.88
2023-02-04T01:33:49.196Z,1018.89
2023-02-04T01:34:49.166Z,1018.91
2023-02-04T01:35:49.132Z,1018.95
2023-02-04T01:36:49.103Z,1018.92
2023-02-04T01:37:49.092Z,1018.97
2023-02-04T01:38:49.035Z,1018.95
2023-02-04T01:39:48.999Z,1018.97
2023-02-04T01:40:48.973Z,1018.97
2023-02-04T01:41:48.938Z,1018.96
2023-02-04T01:42:48.904Z,1018.97
2023-02-04T01:43:48.868Z,1018.99
2023-02-04T01:44:48.848Z,1018.97
2023-02-04T01:45:48.850Z,1019.01
2023-02-04T01:46:48.772Z,1018.99
2023-02-04T01:47:48.741Z,1018.99
2023-02-04T01:48:48.706Z,1019.01
2023-02-04T01:49:48.675Z,1018.98
2023-02-04T01:50:48.642Z,1019.01
2023-02-04T01:51:48.610Z,1018.98
2023-02-04T01:52:48.577Z,1019.05
2023-02-04T01:53:48.568Z,1019.06
2023-02-04T01:54:48.512Z,1019.1
2023-02-04T01:55:48.479Z,1019.1
2023-02-04T01:56:48.447Z,1019.09
2023-02-04T01:57:48.411Z,1019.13
2023-02-04T01:58:48.384Z,1019.12
2023-02-04T01:59:48.354Z,1019.19
2023-02-04T02:00:48.330Z,1019.18
2023-02-04T02:01:48.282Z,1019.18
2023-02-04T02:02:48.250Z,1019.22
2023-02-04T02:03:48.218Z,1019.22
2023-02-04T02:04:48.186Z,1019.25
2023-02-04T02:05:48.152Z,1019.27
2023-02-04T02:06:48.124Z,1019.32
2023-02-04T02:07:48.089Z,1019.28
2023-02-04T02:08:48.058Z,1019.32
2023-02-04T02:09:48.045Z,1019.28
2023-02-04T02:10:47.990Z,1019.25
2023-02-04T02:11:47.957Z,1019.24
2023-02-04T02:12:47.924Z,1019.2
2023-02-04T02:13:47.891Z,1019.22
2023-02-04T02:14:47.860Z,1019.2
2023-02-04T02:15:47.848Z,1019.21
2023-02-04T02:16:47.904Z,1019.25
2023-02-04T02:17:47.761Z,1019.23
2023-02-04T02:18:47.734Z,1019.24
2023-02-04T02:19:47.698Z,1019.23
2023-02-04T02:20:47.662Z,1019.31
2023-02-04T02:21:47.636Z,1019.3
2023-02-04T02:22:47.598Z,1019.32
2023-02-04T02:23:47.570Z,1019.3
2023-02-04T02:24:47.532Z,1019.33
2023-02-04T02:25:47.535Z,1019.35
2023-02-04T02:26:47.471Z,1019.32
2023-02-04T02:27:47.465Z,1019.34
2023-02-04T02:28:47.402Z,1019.33
2023-02-04T02:29:47.371Z,1019.28
2023-02-04T02:30:47.473Z,1019.22
2023-02-04T02:31:47.416Z,1019.28
2023-02-04T02:32:47.276Z,1019.3
2023-02-04T02:33:47.241Z,1019.3
2023-02-04T02:34:47.206Z,1019.4
2023-02-04T02:35:47.175Z,1019.36
2023-02-04T02:36:47.141Z,1019.41
2023-02-04T02:37:47.108Z,1019.34
2023-02-04T02:38:47.080Z,1019.39
2023-02-04T02:39:47.052Z,1019.36
2023-02-04T02:40:47.019Z,1019.31
2023-02-04T02:41:47.005Z,1019.27
2023-02-04T02:42:46.945Z,1019.26
2023-02-04T02:43:46.914Z,1019.22
2023-02-04T02:44:46.881Z,1019.33
2023-02-04T02:45:46.926Z,1019.31
2023-02-04T02:46:46.820Z,1019.34
2023-02-04T02:47:46.805Z,1019.34
2023-02-04T02:48:46.747Z,1019.34
2023-02-04T02:49:46.715Z,1019.37
2023-02-04T02:50:46.680Z,1019.39
2023-02-04T02:51:46.654Z,1019.43
2023-02-04T02:52:46.620Z,1019.43
2023-02-04T02:53:46.583Z,1019.43
2023-02-04T02:54:46.554Z,1019.48
2023-02-04T02:55:46.524Z,1019.49
2023-02-04T02:56:46.484Z,1019.48
2023-02-04T02:57:46.492Z,1019.47
2023-02-04T02:58:46.420Z,1019.44
2023-02-04T02:59:46.399Z,1019.41
2023-02-04T03:00:46.352Z,1019.47
2023-02-04T03:01:46.321Z,1019.47
2023-02-04T03:02:46.317Z,1019.45
2023-02-04T03:03:46.270Z,1019.49
2023-02-04T03:04:46.228Z,1019.46
2023-02-04T03:05:46.191Z,1019.52
2023-02-04T03:06:46.158Z,1019.54
2023-02-04T03:07:46.130Z,1019.53
2023-02-04T03:08:46.089Z,1019.51
2023-02-04T03:09:46.059Z,1019.51
2023-02-04T03:10:46.029Z,1019.51
2023-02-04T03:11:45.992Z,1019.5
2023-02-04T03:12:45.960Z,1019.54
2023-02-04T03:13:45.951Z,1019.55
2023-02-04T03:14:45.894Z,1019.51
2023-02-04T03:15:45.927Z,1019.49
2023-02-04T03:16:45.832Z,1019.5
2023-02-04T03:17:45.796Z,1019.49
2023-02-04T03:18:45.766Z,1019.47
2023-02-04T03:19:45.732Z,1019.46
2023-02-04T03:20:45.702Z,1019.45
2023-02-04T03:21:45.672Z,1019.46
2023-02-04T03:22:45.651Z,1019.46
2023-02-04T03:23:45.603Z,1019.48
2023-02-04T03:24:45.573Z,1019.49
2023-02-04T03:25:45.539Z,1019.46
2023-02-04T03:26:45.512Z,1019.47
2023-02-04T03:27:45.513Z,1019.46
2023-02-04T03:28:45.444Z,1019.45
2023-02-04T03:29:45.439Z,1019.45
2023-02-04T03:30:45.439Z,1019.46
2023-02-04T03:31:45.482Z,1019.5
2023-02-04T03:32:45.312Z,1019.54
2023-02-04T03:33:45.281Z,1019.53
2023-02-04T03:34:45.249Z,1019.56
2023-02-04T03:35:45.214Z,1019.59
2023-02-04T03:36:45.211Z,1019.62
2023-02-04T03:37:45.154Z,1019.62
2023-02-04T03:38:45.118Z,1019.65
2023-02-04T03:39:45.084Z,1019.63
2023-02-04T03:40:45.054Z,1019.65
2023-02-04T03:41:45.020Z,1019.64
2023-02-04T03:42:44.995Z,1019.66
2023-02-04T03:43:44.956Z,1019.73
2023-02-04T03:44:44.925Z,1019.77
2023-02-04T03:45:45.906Z,1019.8
2023-02-04T03:46:44.858Z,1019.81
2023-02-04T03:47:44.823Z,1019.78
2023-02-04T03:48:44.792Z,1019.8
2023-02-04T03:49:44.760Z,1019.74
2023-02-04T03:50:44.727Z,1019.73
2023-02-04T03:51:44.693Z,1019.8
2023-02-04T03:52:44.673Z,1019.78
2023-02-04T03:53:44.629Z,1019.78
2023-02-04T03:54:44.598Z,1019.76
2023-02-04T03:55:44.563Z,1019.7
2023-02-04T03:56:44.533Z,1019.71
2023-02-04T03:57:44.506Z,1019.78
2023-02-04T03:58:44.466Z,1019.83
2023-02-04T03:59:44.432Z,1019.89
2023-02-04T04:00:44.404Z,1019.89
2023-02-04T04:01:44.428Z,1019.89
2023-02-04T04:02:44.405Z,1019.9
2023-02-04T04:03:44.305Z,1019.91
2023-02-04T04:04:44.272Z,1019.92
2023-02-04T04:05:44.239Z,1019.86
2023-02-04T04:06:44.205Z,1019.84
2023-02-04T04:07:44.181Z,1019.85
2023-02-04T04:08:44.151Z,1019.88
2023-02-04T04:09:44.109Z,1019.93
2023-02-04T04:10:44.077Z,1019.93
2023-02-04T04:11:44.144Z,1019.96
2023-02-04T04:12:44.009Z,1019.99
2023-02-04T04:13:43.978Z,1019.99
2023-02-04T04:14:43.944Z,1020
2023-02-04T04:15:43.947Z,1020
2023-02-04T04:16:43.879Z,1020.02
2023-02-04T04:17:43.877Z,1020.04
2023-02-04T04:18:43.829Z,1020.09
2023-02-04T04:19:43.783Z,1020.08
2023-02-04T04:20:43.747Z,1020.09
2023-02-04T04:21:43.717Z,1020.11
2023-02-04T04:22:43.684Z,1020.15
2023-02-04T04:23:43.656Z,1020.11
2023-02-04T04:24:43.618Z,1020.08
2023-02-04T04:25:43.587Z,1020.09
2023-02-04T04:26:43.552Z,1020.15
2023-02-04T04:27:43.554Z,1020.17
2023-02-04T04:28:43.485Z,1020.2
2023-02-04T04:29:43.457Z,1020.22
2023-02-04T04:30:43.483Z,1020.24
2023-02-04T04:31:43.425Z,1020.27
2023-02-04T04:32:43.358Z,1020.33
2023-02-04T04:33:43.346Z,1020.29
2023-02-04T04:34:43.293Z,1020.3
2023-02-04T04:35:43.257Z,1020.33
2023-02-04T04:36:43.221Z,1020.34
2023-02-04T04:37:43.193Z,1020.35
2023-02-04T04:38:43.159Z,1020.37
2023-02-04T04:39:43.122Z,1020.37
2023-02-04T04:40:43.092Z,1020.36
2023-02-04T04:41:43.061Z,1020.39
2023-02-04T04:42:43.022Z,1020.44
2023-02-04T04:43:42.990Z,1020.39
2023-02-04T04:44:42.956Z,1020.38
2023-02-04T04:45:42.925Z,1020.34
2023-02-04T04:46:42.934Z,1020.33
2023-02-04T04:47:42.859Z,1020.29
2023-02-04T04:48:42.825Z,1020.29
2023-02-04T04:49:42.826Z,1020.3
2023-02-04T04:50:42.759Z,1020.32
2023-02-04T04:51:42.728Z,1020.34
2023-02-04T04:52:42.694Z,1020.35
2023-02-04T04:53:42.661Z,1020.37
2023-02-04T04:54:42.630Z,1020.36
2023-02-04T04:55:42.600Z,1020.3
2023-02-04T04:56:42.564Z,1020.33
2023-02-04T04:57:42.528Z,1020.36
2023-02-04T04:58:42.497Z,1020.35
2023-02-04T04:59:42.467Z,1020.34
2023-02-04T05:00:42.453Z,1020.37
2023-02-04T05:01:42.410Z,1020.42
2023-02-04T05:02:42.369Z,1020.42
2023-02-04T05:03:42.337Z,1020.42
2023-02-04T05:04:42.337Z,1020.44
2023-02-04T05:05:42.296Z,1020.51
2023-02-04T05:06:42.241Z,1020.51
2023-02-04T05:07:42.210Z,1020.55
2023-02-04T05:08:42.176Z,1020.56
2023-02-04T05:09:42.143Z,1020.57
2023-02-04T05:10:42.112Z,1020.57
2023-02-04T05:11:42.077Z,1020.56
2023-02-04T05:12:42.048Z,1020.57
2023-02-04T05:13:42.013Z,1020.5
2023-02-04T05:14:41.982Z,1020.54
2023-02-04T05:15:41.949Z,1020.51
2023-02-04T05:16:41.981Z,1020.55
2023-02-04T05:17:41.887Z,1020.61
2023-02-04T05:18:41.858Z,1020.6
2023-02-04T05:19:41.818Z,1020.57
2023-02-04T05:20:41.790Z,1020.53
2023-02-04T05:21:41.791Z,1020.61
2023-02-04T05:22:41.722Z,1020.55
2023-02-04T05:23:41.688Z,1020.59
2023-02-04T05:24:41.657Z,1020.57
2023-02-04T05:25:41.623Z,1020.65
2023-02-04T05:26:41.594Z,1020.6
2023-02-04T05:27:41.574Z,1020.63
2023-02-04T05:28:41.534Z,1020.68
2023-02-04T05:29:41.494Z,1020.67
2023-02-04T05:30:41.534Z,1020.71
2023-02-04T05:31:41.475Z,1020.71
2023-02-04T05:32:41.398Z,1020.7
2023-02-04T05:33:41.369Z,1020.68
2023-02-04T05:34:41.332Z,1020.68
2023-02-04T05:35:41.298Z,1020.72
2023-02-04T05:36:41.266Z,1020.71
2023-02-04T05:37:41.257Z,1020.73
2023-02-04T05:38:41.209Z,1020.73
2023-02-04T05:39:41.167Z,1020.77
2023-02-04T05:40:41.134Z,1020.79
2023-02-04T05:41:41.101Z,1020.76
2023-02-04T05:42:41.069Z,1020.81
2023-02-04T05:43:41.036Z,1020.82
2023-02-04T05:44:41.002Z,1020.83
2023-02-04T05:45:41.012Z,1020.81
2023-02-04T05:46:40.939Z,1020.78
2023-02-04T05:47:40.932Z,1020.85
2023-02-04T05:48:40.876Z,1020.9
2023-02-04T05:49:40.841Z,1020.96
2023-02-04T05:50:40.814Z,1020.95
2023-02-04T05:51:40.778Z,1020.94
2023-02-04T05:52:40.741Z,1020.96
2023-02-04T05:53:40.800Z,1021
2023-02-04T05:54:40.677Z,1021.01
2023-02-04T05:55:40.646Z,1021.01
2023-02-04T05:56:40.614Z,1020.97
2023-02-04T05:57:40.584Z,1021
2023-02-04T05:58:40.550Z,1020.99
2023-02-04T05:59:40.519Z,1021
2023-02-04T06:00:40.485Z,1021.01
2023-02-04T06:01:40.450Z,1021
2023-02-04T06:02:40.418Z,1021
2023-02-04T06:03:40.425Z,1020.98
2023-02-04T06:04:40.399Z,1021.02
2023-02-04T06:05:40.321Z,1021.03
2023-02-04T06:06:40.290Z,1021.04
2023-02-04T06:07:40.259Z,1021.12
2023-02-04T06:08:40.222Z,1021.11
2023-02-04T06:09:40.213Z,1021.13
2023-02-04T06:10:40.157Z,1021.15
2023-02-04T06:11:40.127Z,1021.18
2023-02-04T06:12:40.097Z,1021.18
2023-02-04T06:13:40.065Z,1021.19
2023-02-04T06:14:40.026Z,1021.15
2023-02-04T06:15:39.996Z,1021.23
2023-02-04T06:16:40.003Z,1021.27
2023-02-04T06:17:39.938Z,1021.24
2023-02-04T06:18:39.900Z,1021.24
2023-02-04T06:19:39.869Z,1021.23
2023-02-04T06:20:39.835Z,1021.32
2023-02-04T06:21:39.803Z,1021.25
2023-02-04T06:22:39.770Z,1021.32
2023-02-04T06:23:39.736Z,1021.27
2023-02-04T06:24:39.704Z,1021.32
2023-02-04T06:25:39.716Z,1021.26
2023-02-04T06:26:39.645Z,1021.27
2023-02-04T06:27:39.663Z,1021.31
2023-02-04T06:28:39.585Z,1021.33
2023-02-04T06:29:39.540Z,1021.31
2023-02-04T06:30:39.517Z,1021.33
2023-02-04T06:31:39.535Z,1021.4
2023-02-04T06:32:39.453Z,1021.38
2023-02-04T06:33:39.409Z,1021.37
2023-02-04T06:34:39.380Z,1021.36
2023-02-04T06:35:39.345Z,1021.38
2023-02-04T06:36:39.316Z,1021.36
2023-02-04T06:37:39.279Z,1021.39
2023-02-04T06:38:39.247Z,1021.4
2023-02-04T06:39:39.214Z,1021.39
2023-02-04T06:40:39.184Z,1021.38
2023-02-04T06:41:39.173Z,1021.37
2023-02-04T06:42:39.122Z,1021.36
2023-02-04T06:43:39.085Z,1021.32
2023-02-04T06:44:39.052Z,1021.3
2023-02-04T06:45:39.018Z,1021.32
2023-02-04T06:46:38.987Z,1021.35
2023-02-04T06:47:38.956Z,1021.41
2023-02-04T06:48:38.923Z,1021.39
2023-02-04T06:49:38.892Z,1021.43
2023-02-04T06:50:38.857Z,1021.39
2023-02-04T06:51:38.822Z,1021.4
2023-02-04T06:52:38.796Z,1021.38
2023-02-04T06:53:38.757Z,1021.4
2023-02-04T06:54:38.743Z,1021.39
2023-02-04T06:55:38.712Z,1021.43
2023-02-04T06:56:38.663Z,1021.41
2023-02-04T06:57:38.652Z,1021.47
2023-02-04T06:58:38.596Z,1021.5
2023-02-04T06:59:38.564Z,1021.52
2023-02-04T07:00:38.533Z,1021.51
2023-02-04T07:01:38.570Z,1021.49
2023-02-04T07:02:38.501Z,1021.55
2023-02-04T07:03:38.442Z,1021.5
2023-02-04T07:04:38.405Z,1021.53
2023-02-04T07:05:38.369Z,1021.5
2023-02-04T07:06:38.338Z,1021.51
2023-02-04T07:07:38.308Z,1021.58
2023-02-04T07:08:38.275Z,1021.58
2023-02-04T07:09:38.239Z,1021.57
2023-02-04T07:10:38.212Z,1021.59
2023-02-04T07:11:38.174Z,1021.58
2023-02-04T07:12:38.141Z,1021.58
2023-02-04T07:13:38.131Z,1021.65
2023-02-04T07:14:38.093Z,1021.67
2023-02-04T07:15:38.084Z,1021.66
2023-02-04T07:16:38.012Z,1021.69
2023-02-04T07:17:37.977Z,1021.67
2023-02-04T07:18:37.947Z,1021.71
2023-02-04T07:19:37.912Z,1021.71
2023-02-04T07:20:37.883Z,1021.75
2023-02-04T07:21:37.847Z,1021.78
2023-02-04T07:22:37.827Z,1021.76
2023-02-04T07:23:37.785Z,1021.79
2023-02-04T07:24:37.751Z,1021.74
2023-02-04T07:25:37.718Z,1021.73
2023-02-04T07:26:37.698Z,1021.75
2023-02-04T07:27:37.656Z,1021.76
2023-02-04T07:28:37.619Z,1021.72
2023-02-04T07:29:37.612Z,1021.74
2023-02-04T07:30:37.627Z,1021.74
2023-02-04T07:31:37.650Z,1021.74
2023-02-04T07:32:37.493Z,1021.78
2023-02-04T07:33:37.458Z,1021.76
2023-02-04T07:34:37.425Z,1021.76
2023-02-04T07:35:37.395Z,1021.77
2023-02-04T07:36:37.379Z,1021.82
2023-02-04T07:37:37.328Z,1021.81
2023-02-04T07:38:37.294Z,1021.82
2023-02-04T07:39:37.264Z,1021.84
2023-02-04T07:40:37.230Z,1021.82
2023-02-04T07:41:37.194Z,1021.86
2023-02-04T07:42:37.160Z,1021.87
2023-02-04T07:43:37.130Z,1021.85
2023-02-04T07:44:37.094Z,1021.9
2023-02-04T07:45:37.085Z,1021.9
2023-02-04T07:46:37.048Z,1021.85
2023-02-04T07:47:36.998Z,1021.88
2023-02-04T07:48:36.965Z,1021.89
2023-02-04T07:49:36.937Z,1021.89
2023-02-04T07:50:36.903Z,1021.91
2023-02-04T07:51:36.875Z,1021.97
2023-02-04T07:52:36.835Z,1021.97
2023-02-04T07:53:36.803Z,1021.98
2023-02-04T07:54:36.771Z,1021.97
2023-02-04T07:55:36.737Z,1021.98
2023-02-04T07:56:36.704Z,1021.95
2023-02-04T07:57:36.688Z,1021.99
2023-02-04T07:58:36.640Z,1022
2023-02-04T07:59:36.609Z,1021.95
2023-02-04T08:00:36.573Z,1021.99
2023-02-04T08:01:36.586Z,1022.04
2023-02-04T08:02:36.516Z,1021.95
2023-02-04T08:03:37.163Z,1021.99
2023-02-04T08:04:36.447Z,1022
2023-02-04T08:05:36.417Z,1021.97
2023-02-04T08:06:36.382Z,1021.98
2023-02-04T08:07:36.361Z,1022
2023-02-04T08:08:36.318Z,1021.99
2023-02-04T08:09:36.290Z,1021.99
2023-02-04T08:10:36.254Z,1022.02
2023-02-04T08:11:36.223Z,1022.03
2023-02-04T08:12:36.192Z,1022.02
2023-02-04T08:13:36.160Z,1022.06
2023-02-04T08:14:36.124Z,1022.04
2023-02-04T08:15:36.120Z,1022.04
2023-02-04T08:16:36.061Z,1022.08
2023-02-04T08:17:36.055Z,1022.07
2023-02-04T08:18:35.998Z,1022.11
2023-02-04T08:19:35.966Z,1022.15
2023-02-04T08:20:35.934Z,1022.13
2023-02-04T08:21:35.899Z,1022.12
2023-02-04T08:22:35.869Z,1022.12
2023-02-04T08:23:35.838Z,1022.16
2023-02-04T08:24:35.806Z,1022.19
2023-02-04T08:25:35.775Z,1022.19
2023-02-04T08:26:35.756Z,1022.24
2023-02-04T08:27:35.710Z,1022.23
2023-02-04T08:28:35.682Z,1022.27
2023-02-04T08:29:35.647Z,1022.3
2023-02-04T08:30:35.644Z,1022.25
2023-02-04T08:31:35.703Z,1022.33
2023-02-04T08:32:35.560Z,1022.34
2023-02-04T08:33:35.544Z,1022.35
2023-02-04T08:34:35.489Z,1022.33
2023-02-04T08:35:35.455Z,1022.35
2023-02-04T08:36:35.427Z,1022.39
2023-02-04T08:37:35.400Z,1022.38
2023-02-04T08:38:35.364Z,1022.38
2023-02-04T08:39:35.335Z,1022.42
2023-02-04T08:40:35.315Z,1022.42
2023-02-04T08:41:35.265Z,1022.4
2023-02-04T08:42:35.238Z,1022.45
2023-02-04T08:43:35.208Z,1022.53
2023-02-04T08:44:35.175Z,1022.54
2023-02-04T08:45:35.148Z,1022.55
2023-02-04T08:46:35.200Z,1022.56
2023-02-04T08:47:35.087Z,1022.58
2023-02-04T08:48:35.064Z,1022.58
2023-02-04T08:49:35.064Z,1022.53
2023-02-04T08:50:34.998Z,1022.58
2023-02-04T08:51:34.991Z,1022.59
2023-02-04T08:52:34.940Z,1022.61
2023-02-04T08:53:34.918Z,1022.61
2023-02-04T08:54:34.876Z,1022.66
2023-02-04T08:55:34.845Z,1022.62
2023-02-04T08:56:36.187Z,1022.66
2023-02-04T08:57:34.785Z,1022.64
2023-02-04T08:58:34.756Z,1022.66
2023-02-04T08:59:34.723Z,1022.7
2023-02-04T09:00:35.062Z,1022.71
2023-02-04T09:01:34.661Z,1022.72
2023-02-04T09:02:34.644Z,1022.75
2023-02-04T09:03:34.601Z,1022.74
2023-02-04T09:04:34.571Z,1022.73
2023-02-04T09:05:34.567Z,1022.76
2023-02-04T09:06:34.520Z,1022.7
2023-02-04T09:07:34.481Z,1022.76
2023-02-04T09:08:34.468Z,1022.71
2023-02-04T09:09:34.420Z,1022.73
2023-02-04T09:10:34.646Z,1022.77
2023-02-04T09:11:34.358Z,1022.73
2023-02-04T09:12:34.324Z,1022.79
2023-02-04T09:13:34.295Z,1022.78
2023-02-04T09:14:34.264Z,1022.79
2023-02-04T09:15:34.247Z,1022.78
2023-02-04T09:16:34.305Z,1022.78
2023-02-04T09:17:34.171Z,1022.79
2023-02-04T09:18:34.138Z,1022.82
2023-02-04T09:19:34.119Z,1022.76
2023-02-04T09:20:34.300Z,1022.78
2023-02-04T09:21:34.070Z,1022.78
2023-02-04T09:22:34.017Z,1022.79
2023-02-04T09:23:33.986Z,1022.76
2023-02-04T09:24:33.954Z,1022.79
2023-02-04T09:25:33.925Z,1022.8
2023-02-04T09:26:33.894Z,1022.79
2023-02-04T09:27:33.872Z,1022.76
2023-02-04T09:28:33.831Z,1022.78
2023-02-04T09:29:33.804Z,1022.82
2023-02-04T09:30:34.138Z,1022.88
2023-02-04T09:31:33.881Z,1022.88
2023-02-04T09:32:33.710Z,1022.92
2023-02-04T09:33:33.683Z,1022.91
2023-02-04T09:34:33.649Z,1022.89
2023-02-04T09:35:33.620Z,1022.85
2023-02-04T09:36:33.589Z,1022.84
2023-02-04T09:37:33.584Z,1022.89
2023-02-04T09:38:33.527Z,1022.91
2023-02-04T09:39:33.505Z,1022.9
2023-02-04T09:40:33.818Z,1022.93
2023-02-04T09:41:33.438Z,1022.92
2023-02-04T09:42:33.408Z,1022.94
2023-02-04T09:43:33.378Z,1022.88
2023-02-04T09:44:33.346Z,1022.91
2023-02-04T09:45:33.337Z,1022.89
2023-02-04T09:46:33.287Z,1022.93
2023-02-04T09:47:33.258Z,1022.92
2023-02-04T09:48:33.230Z,1022.97
2023-02-04T09:49:33.201Z,1022.93
2023-02-04T09:50:33.666Z,1022.95
2023-02-04T09:51:33.142Z,1022.94
2023-02-04T09:52:33.105Z,1022.93
2023-02-04T09:53:33.103Z,1022.98
2023-02-04T09:54:33.050Z,1023
2023-02-04T09:55:33.018Z,1023.01
2023-02-04T09:56:32.978Z,1023.02
2023-02-04T09:57:32.947Z,1023
2023-02-04T09:58:32.914Z,1023.04
2023-02-04T09:59:32.890Z,1023.07
2023-02-04T10:00:33.133Z,1023.06
2023-02-04T10:01:32.828Z,1023.11
2023-02-04T10:02:32.795Z,1023.1
2023-02-04T10:03:32.811Z,1023.12
2023-02-04T10:04:32.734Z,1023.11
2023-02-04T10:05:32.701Z,1023.17
2023-02-04T10:06:32.672Z,1023.2
2023-02-04T10:07:32.661Z,1023.19
2023-02-04T10:08:32.618Z,1023.22
2023-02-04T10:09:32.606Z,1023.19
2023-02-04T10:10:32.849Z,1023.23
2023-02-04T10:11:32.521Z,1023.18
2023-02-04T10:12:32.504Z,1023.17
2023-02-04T10:13:32.467Z,1023.19
2023-02-04T10:14:32.437Z,1023.22
2023-02-04T10:15:32.403Z,1023.19
2023-02-04T10:16:32.446Z,1023.21
2023-02-04T10:17:32.346Z,1023.22
2023-02-04T10:18:32.323Z,1023.25
2023-02-04T10:19:32.286Z,1023.28
2023-02-04T10:20:32.584Z,1023.27
2023-02-04T10:21:32.383Z,1023.29
2023-02-04T10:22:32.202Z,1023.32
2023-02-04T10:23:32.171Z,1023.28
2023-02-04T10:24:32.145Z,1023.29
2023-02-04T10:25:32.141Z,1023.28
2023-02-04T10:26:32.086Z,1023.26
2023-02-04T10:27:32.057Z,1023.22
2023-02-04T10:28:32.032Z,1023.21
2023-02-04T10:29:32.002Z,1023.25
2023-02-04T10:30:32.319Z,1023.23
2023-02-04T10:31:32.076Z,1023.21
2023-02-04T10:32:31.919Z,1023.27
2023-02-04T10:33:31.890Z,1023.3
2023-02-04T10:34:31.860Z,1023.3
2023-02-04T10:35:31.831Z,1023.3
2023-02-04T10:36:31.802Z,1023.32
2023-02-04T10:37:31.786Z,1023.32
2023-02-04T10:38:31.746Z,1023.39
2023-02-04T10:39:31.715Z,1023.34
2023-02-04T10:40:32.032Z,1023.39
2023-02-04T10:41:31.680Z,1023.34
2023-02-04T10:42:31.644Z,1023.36
2023-02-04T10:43:31.600Z,1023.38
2023-02-04T10:44:31.579Z,1023.36
2023-02-04T10:45:31.541Z,1023.37
2023-02-04T10:46:31.554Z,1023.39
2023-02-04T10:47:31.797Z,1023.37
2023-02-04T10:48:31.449Z,1023.31
2023-02-04T10:49:31.417Z,1023.36
2023-02-04T10:50:31.678Z,1023.29
2023-02-04T10:51:31.359Z,1023.29
2023-02-04T10:52:31.329Z,1023.27
2023-02-04T10:53:31.304Z,1023.3
2023-02-04T10:54:31.269Z,1023.3
2023-02-04T10:55:31.242Z,1023.26
2023-02-04T10:56:31.212Z,1023.28
2023-02-04T10:57:31.205Z,1023.23
2023-02-04T10:58:31.151Z,1023.25
2023-02-04T10:59:31.125Z,1023.26
2023-02-04T11:00:31.499Z,1023.24
2023-02-04T11:01:31.135Z,1023.28
2023-02-04T11:02:31.033Z,1023.24
2023-02-04T11:03:31.103Z,1023.27
2023-02-04T11:04:30.976Z,1023.28
2023-02-04T11:05:30.947Z,1023.33
2023-02-04T11:06:30.917Z,1023.33
2023-02-04T11:07:30.894Z,1023.32
2023-02-04T11:08:30.864Z,1023.36
2023-02-04T11:09:30.832Z,1023.32
2023-02-04T11:10:31.265Z,1023.34
2023-02-04T11:11:30.775Z,1023.36
2023-02-04T11:12:30.746Z,1023.36
2023-02-04T11:13:30.740Z,1023.36
2023-02-04T11:14:30.687Z,1023.37
2023-02-04T11:15:30.688Z,1023.36
2023-02-04T11:16:30.632Z,1023.35
2023-02-04T11:17:30.613Z,1023.35
2023-02-04T11:18:30.574Z,1023.34
2023-02-04T11:19:30.595Z,1023.39
2023-02-04T11:20:30.903Z,1023.34
2023-02-04T11:21:30.509Z,1023.37
2023-02-04T11:22:30.458Z,1023.37
2023-02-04T11:23:30.435Z,1023.37
2023-02-04T11:24:30.405Z,1023.38
2023-02-04T11:25:30.887Z,1023.38
2023-02-04T11:26:30.360Z,1023.39
2023-02-04T11:27:30.323Z,1023.38
2023-02-04T11:28:30.290Z,1023.37
2023-02-04T11:29:30.284Z,1023.35
2023-02-04T11:30:30.229Z,1023.38
2023-02-04T11:31:30.345Z,1023.37
2023-02-04T11:32:30.172Z,1023.32
2023-02-04T11:33:30.145Z,1023.35
2023-02-04T11:34:30.133Z,1023.39
2023-02-04T11:35:30.317Z,1023.35
2023-02-04T11:36:30.059Z,1023.38
2023-02-04T11:37:30.034Z,1023.39
2023-02-04T11:38:30.000Z,1023.36
2023-02-04T11:39:29.972Z,1023.34
2023-02-04T11:40:29.946Z,1023.34
2023-02-04T11:41:29.923Z,1023.3
2023-02-04T11:42:29.883Z,1023.28
2023-02-04T11:43:29.855Z,1023.29
2023-02-04T11:44:29.826Z,1023.31
2023-02-04T11:45:30.209Z,1023.29
2023-02-04T11:46:29.834Z,1023.32
2023-02-04T11:47:29.740Z,1023.3
2023-02-04T11:48:29.711Z,1023.34
2023-02-04T11:49:29.698Z,1023.33
2023-02-04T11:50:29.653Z,1023.37
2023-02-04T11:51:29.622Z,1023.36
2023-02-04T11:52:29.604Z,1023.4
2023-02-04T11:53:29.568Z,1023.38
2023-02-04T11:54:29.542Z,1023.36
2023-02-04T11:55:29.620Z,1023.37
2023-02-04T11:56:29.498Z,1023.37
2023-02-04T11:57:29.452Z,1023.37
2023-02-04T11:58:29.538Z,1023.37
2023-02-04T11:59:29.402Z,1023.34
2023-02-04T12:00:29.366Z,1023.36
2023-02-04T12:01:29.362Z,1023.4
2023-02-04T12:02:29.338Z,1023.41
2023-02-04T12:03:29.329Z,1023.43
2023-02-04T12:04:29.251Z,1023.37
2023-02-04T12:05:29.222Z,1023.38
2023-02-04T12:06:29.202Z,1023.41
2023-02-04T12:07:29.181Z,1023.39
2023-02-04T12:08:29.138Z,1023.39